Time;durP1;ratioP1;P1;durP2;ratioP2;P2;SDS_P1;SDS_P2;PMS_P1;PMS_P2;Temp;Humidity;BMP_temperature;BMP_pressure;BME280_temperature;BME280_humidity;BME280_pressure;Samples;Min_cycle;Max_cycle;Signal;HPM_P1;HPM_P2
2023/01/09 00:01:44;;;;;;;0.95;0.57;;;9.00;99.90;;;;;;4994791;28;20107;-90
2023/01/09 00:04:11;;;;;;;0.63;0.50;;;9.00;99.90;;;;;;5000594;28;20025;-88
2023/01/09 00:06:38;;;;;;;1.13;0.50;;;8.90;99.90;;;;;;4992723;28;20178;-91
2023/01/09 00:09:04;;;;;;;0.80;0.57;;;9.00;99.90;;;;;;4993253;28;20029;-91
2023/01/09 00:11:30;;;;;;;1.47;0.53;;;9.00;99.90;;;;;;4976436;28;20021;-90
2023/01/09 00:13:56;;;;;;;1.02;0.70;;;8.90;99.90;;;;;;4996588;28;20040;-91
2023/01/09 00:16:21;;;;;;;0.90;0.60;;;8.90;99.90;;;;;;4999991;28;20425;-90
2023/01/09 00:18:47;;;;;;;0.50;0.50;;;8.90;99.90;;;;;;5004499;28;20033;-90
2023/01/09 00:21:14;;;;;;;0.98;0.60;;;8.90;99.90;;;;;;4985800;28;20417;-90
2023/01/09 00:23:39;;;;;;;0.65;0.50;;;8.90;99.90;;;;;;4992683;28;20101;-89
2023/01/09 00:26:11;;;;;;;0.57;0.57;;;8.90;99.90;;;;;;4973835;28;20813;-91
2023/01/09 00:28:38;;;;;;;1.20;0.63;;;8.80;99.90;;;;;;4991820;28;21285;-89
2023/01/09 00:31:05;;;;;;;1.00;0.70;;;8.80;99.90;;;;;;4999218;28;20028;-89
2023/01/09 00:33:38;;;;;;;0.85;0.60;;;8.80;99.90;;;;;;4990424;28;20037;-91
2023/01/09 00:36:04;;;;;;;2.50;0.65;;;8.80;99.90;;;;;;5006519;28;20210;-91
2023/01/09 00:38:30;;;;;;;0.70;0.60;;;8.80;99.90;;;;;;4986333;28;20025;-89
2023/01/09 00:40:56;;;;;;;0.88;0.50;;;8.80;99.90;;;;;;4995922;28;20021;-91
2023/01/09 00:43:25;;;;;;;1.15;0.50;;;8.70;99.90;;;;;;4975382;28;20546;-89
2023/01/09 00:45:51;;;;;;;1.98;0.80;;;8.80;99.90;;;;;;5018869;28;20929;-90
2023/01/09 00:48:25;;;;;;;1.77;0.97;;;8.70;99.90;;;;;;5028468;28;20162;-91
2023/01/09 00:50:52;;;;;;;2.17;0.70;;;8.70;99.90;;;;;;4986097;28;20519;-89
2023/01/09 00:53:22;;;;;;;1.55;0.70;;;8.70;99.90;;;;;;5025835;28;20250;-89
2023/01/09 00:55:49;;;;;;;1.40;0.80;;;8.70;99.90;;;;;;5003007;28;20140;-91
2023/01/09 00:58:15;;;;;;;1.88;1.00;;;8.70;99.90;;;;;;5002819;28;20248;-90
2023/01/09 01:00:41;;;;;;;1.10;0.70;;;8.70;99.90;;;;;;5018069;28;20033;-91
2023/01/09 01:03:07;;;;;;;1.00;0.70;;;8.70;99.90;;;;;;5013815;28;20520;-90
2023/01/09 01:08:18;;;;;;;2.87;1.10;;;8.70;99.90;;;;;;5012270;28;20211;-90
2023/01/09 01:10:46;;;;;;;1.98;0.80;;;8.60;99.90;;;;;;5005232;28;20025;-92
2023/01/09 01:13:12;;;;;;;0.68;0.60;;;8.60;99.90;;;;;;4987893;28;20219;-90
2023/01/09 01:15:43;;;;;;;1.45;0.65;;;8.60;99.90;;;;;;5004488;28;20807;-91
2023/01/09 01:18:10;;;;;;;1.85;0.70;;;8.60;99.90;;;;;;4993719;28;20041;-91
2023/01/09 01:20:38;;;;;;;1.70;0.90;;;8.60;99.90;;;;;;4987681;28;20032;-92
2023/01/09 01:23:03;;;;;;;0.80;0.63;;;8.50;99.90;;;;;;4993008;28;20111;-91
2023/01/09 01:25:29;;;;;;;2.70;0.70;;;8.60;99.90;;;;;;5023987;28;20101;-88
2023/01/09 01:27:55;;;;;;;1.83;0.70;;;8.60;99.90;;;;;;4976347;28;20075;-90
2023/01/09 01:30:20;;;;;;;1.90;0.80;;;8.60;99.90;;;;;;5005705;28;20036;-90
2023/01/09 01:32:46;;;;;;;1.77;0.70;;;8.60;99.90;;;;;;5002822;28;20703;-91
2023/01/09 01:35:12;;;;;;;1.10;0.80;;;8.60;99.90;;;;;;5008188;28;20025;-91
2023/01/09 01:37:38;;;;;;;1.40;0.70;;;8.60;99.90;;;;;;5005562;28;20029;-90
2023/01/09 01:40:05;;;;;;;1.40;0.70;;;8.60;99.90;;;;;;5002853;28;20318;-91
2023/01/09 01:42:31;;;;;;;2.83;0.97;;;8.60;99.90;;;;;;4996906;28;20028;-90
2023/01/09 01:45:13;;;;;;;1.85;0.85;;;8.60;99.90;;;;;;4995075;28;20610;-90
2023/01/09 01:47:59;;;;;;;3.85;1.15;;;8.60;99.90;;;;;;5002287;28;20266;-90
2023/01/09 01:50:33;;;;;;;1.38;0.77;;;8.60;99.90;;;;;;5008546;28;20099;-90
2023/01/09 01:53:12;;;;;;;1.55;0.90;;;8.60;99.90;;;;;;4994384;28;20025;-90
2023/01/09 01:55:44;;;;;;;3.27;0.90;;;8.60;99.90;;;;;;5023099;28;20030;-90
2023/01/09 01:58:12;;;;;;;0.73;0.60;;;8.60;99.90;;;;;;5002962;28;20040;-90
2023/01/09 02:00:41;;;;;;;1.75;0.90;;;8.60;99.90;;;;;;4991693;28;20029;-87
2023/01/09 02:03:07;;;;;;;2.88;0.60;;;8.60;99.90;;;;;;4981467;28;20083;-87
2023/01/09 02:05:35;;;;;;;3.00;0.90;;;8.50;99.90;;;;;;4996616;28;20049;-87
2023/01/09 02:08:00;;;;;;;2.70;0.70;;;8.50;99.90;;;;;;4980664;28;20638;-86
2023/01/09 02:10:26;;;;;;;1.63;0.52;;;8.50;99.90;;;;;;4995046;28;20033;-87
2023/01/09 02:12:52;;;;;;;1.42;0.82;;;8.50;99.90;;;;;;5002257;28;20060;-87
2023/01/09 02:15:19;;;;;;;2.70;0.53;;;8.50;99.90;;;;;;4986729;28;20139;-87
2023/01/09 02:18:17;;;;;;;0.85;0.50;;;8.50;99.90;;;;;;4993926;28;20021;-88
2023/01/09 02:21:20;;;;;;;1.45;0.60;;;8.50;99.90;;;;;;5012542;28;20032;-87
2023/01/09 02:24:08;;;;;;;2.10;0.80;;;8.50;99.90;;;;;;4975798;28;20033;-88
2023/01/09 02:26:39;;;;;;;1.00;0.50;;;8.50;99.90;;;;;;4996214;28;20033;-87
2023/01/09 02:29:14;;;;;;;1.67;0.65;;;8.50;99.90;;;;;;5003210;28;20017;-87
2023/01/09 02:31:58;;;;;;;1.30;1.05;;;8.50;99.90;;;;;;4973698;28;20033;-87
2023/01/09 02:34:49;;;;;;;1.33;0.70;;;8.60;99.90;;;;;;5003614;28;20433;-87
2023/01/09 02:37:33;;;;;;;1.23;0.60;;;8.60;99.90;;;;;;5003770;28;20037;-86
2023/01/09 02:40:31;;;;;;;3.10;0.70;;;8.60;99.90;;;;;;4984717;28;20136;-87
2023/01/09 02:42:59;;;;;;;2.50;0.70;;;8.70;99.90;;;;;;4969321;28;20524;-87
2023/01/09 02:45:24;;;;;;;3.28;0.80;;;8.70;99.90;;;;;;4987839;28;20055;-87
2023/01/09 02:47:50;;;;;;;1.87;0.70;;;8.80;99.90;;;;;;5003284;28;20033;-86
2023/01/09 02:50:23;;;;;;;1.47;0.60;;;8.80;99.90;;;;;;4983394;28;20671;-87
2023/01/09 02:52:52;;;;;;;1.80;0.70;;;8.80;99.90;;;;;;5004266;28;20029;-86
2023/01/09 02:55:25;;;;;;;1.35;0.70;;;8.90;99.90;;;;;;5000512;28;20041;-87
2023/01/09 02:58:12;;;;;;;1.50;0.60;;;8.90;99.90;;;;;;5007915;28;20383;-87
2023/01/09 03:00:41;;;;;;;1.85;0.68;;;8.90;99.90;;;;;;5010675;28;20036;-87
2023/01/09 03:03:09;;;;;;;1.77;0.60;;;9.00;99.90;;;;;;5006898;28;20820;-87
2023/01/09 03:06:08;;;;;;;2.13;0.68;;;9.00;99.90;;;;;;5003907;28;20059;-87
2023/01/09 03:08:41;;;;;;;2.67;0.70;;;9.00;99.90;;;;;;4993119;28;20662;-86
2023/01/09 03:11:10;;;;;;;1.03;0.50;;;9.00;99.90;;;;;;5000396;28;20049;-87
2023/01/09 03:13:45;;;;;;;2.55;0.65;;;9.10;99.90;;;;;;4988069;28;22483;-87
2023/01/09 03:16:15;;;;;;;1.38;0.50;;;9.10;99.90;;;;;;5012037;28;20096;-87
2023/01/09 03:18:42;;;;;;;1.75;0.60;;;9.10;99.90;;;;;;4984648;28;20585;-87
2023/01/09 03:21:11;;;;;;;4.00;0.80;;;9.10;99.90;;;;;;4995837;28;20360;-86
2023/01/09 03:23:49;;;;;;;1.60;0.70;;;9.10;99.90;;;;;;5009973;28;20038;-87
2023/01/09 03:26:14;;;;;;;2.35;0.70;;;9.20;99.90;;;;;;5013574;28;20693;-87
2023/01/09 03:28:41;;;;;;;1.90;0.73;;;9.20;99.90;;;;;;5008683;28;20028;-88
2023/01/09 03:31:07;;;;;;;2.58;0.60;;;9.20;99.90;;;;;;5000736;28;20503;-86
2023/01/09 03:33:33;;;;;;;0.90;0.60;;;9.20;99.90;;;;;;4972681;28;20493;-87
2023/01/09 03:35:59;;;;;;;3.05;0.80;;;9.20;99.90;;;;;;4999474;28;20109;-87
2023/01/09 03:38:24;;;;;;;3.70;1.10;;;9.20;99.90;;;;;;4991064;28;20607;-86
2023/01/09 03:40:50;;;;;;;2.10;0.88;;;9.20;99.90;;;;;;4990109;28;20063;-85
2023/01/09 03:43:16;;;;;;;3.83;0.90;;;9.30;99.90;;;;;;5007798;28;20052;-88
2023/01/09 03:45:42;;;;;;;2.38;1.08;;;9.30;99.90;;;;;;5008711;28;20061;-87
2023/01/09 03:48:08;;;;;;;1.77;1.00;;;9.30;99.90;;;;;;4986860;28;20029;-88
2023/01/09 03:50:34;;;;;;;2.90;0.90;;;9.30;99.90;;;;;;4992903;28;20243;-87
2023/01/09 03:53:00;;;;;;;2.08;0.73;;;9.40;99.90;;;;;;4983498;28;20021;-87
2023/01/09 03:55:26;;;;;;;1.88;0.80;;;9.30;99.90;;;;;;4989605;28;20270;-88
2023/01/09 03:57:53;;;;;;;3.15;1.02;;;9.40;99.90;;;;;;4985574;28;20078;-87
2023/01/09 04:00:20;;;;;;;2.07;0.73;;;9.40;99.90;;;;;;4985418;28;20466;-86
2023/01/09 04:02:47;;;;;;;3.65;1.00;;;9.40;99.90;;;;;;4993654;28;20036;-87
2023/01/09 04:05:13;;;;;;;4.72;0.95;;;9.50;99.90;;;;;;4967275;28;20044;-87
2023/01/09 04:07:39;;;;;;;3.53;1.05;;;9.50;99.90;;;;;;5021032;28;20039;-88
2023/01/09 04:10:05;;;;;;;1.83;0.67;;;9.50;99.90;;;;;;4993351;28;20035;-87
2023/01/09 04:12:31;;;;;;;1.27;0.70;;;9.50;99.90;;;;;;4984300;28;20049;-89
2023/01/09 04:14:57;;;;;;;4.13;0.90;;;9.50;99.90;;;;;;5012243;28;20501;-89
2023/01/09 04:17:22;;;;;;;1.83;0.80;;;9.50;99.90;;;;;;4985843;28;20718;-87
2023/01/09 04:19:49;;;;;;;2.30;0.83;;;9.50;99.90;;;;;;4983722;28;20292;-87
2023/01/09 04:22:15;;;;;;;2.80;0.93;;;9.50;99.90;;;;;;5013978;28;20621;-87
2023/01/09 04:24:41;;;;;;;3.25;0.75;;;9.50;99.90;;;;;;4990383;28;20021;-87
2023/01/09 04:27:07;;;;;;;4.67;0.90;;;9.50;99.90;;;;;;4988253;28;20040;-87
2023/01/09 04:29:33;;;;;;;3.65;0.88;;;9.50;99.90;;;;;;5010524;28;20033;-87
2023/01/09 04:31:59;;;;;;;2.85;0.75;;;9.60;99.90;;;;;;5000019;28;20027;-87
2023/01/09 04:34:26;;;;;;;2.57;1.00;;;9.60;99.90;;;;;;4988139;28;20035;-89
2023/01/09 04:36:52;;;;;;;2.55;0.80;;;9.60;99.90;;;;;;4989327;28;20036;-88
2023/01/09 04:39:20;;;;;;;2.55;0.88;;;9.60;99.90;;;;;;4980463;28;20608;-88
2023/01/09 04:41:48;;;;;;;3.78;1.00;;;9.70;99.90;;;;;;5010135;28;20028;-87
2023/01/09 04:44:16;;;;;;;4.28;0.80;;;9.70;99.90;;;;;;4996183;28;20188;-88
2023/01/09 04:46:44;;;;;;;5.10;0.80;;;9.70;99.90;;;;;;5004130;28;20033;-87
2023/01/09 04:49:10;;;;;;;4.65;0.95;;;9.80;99.90;;;;;;4999332;28;20037;-87
2023/01/09 04:51:35;;;;;;;3.03;0.98;;;9.80;99.90;;;;;;4986083;28;20033;-88
2023/01/09 04:54:01;;;;;;;3.38;0.88;;;9.80;99.90;;;;;;4984593;28;20040;-87
2023/01/09 04:56:27;;;;;;;2.63;0.90;;;9.80;99.90;;;;;;4992530;28;20051;-87
2023/01/09 04:58:53;;;;;;;5.47;0.90;;;9.80;99.90;;;;;;5004688;28;20025;-89
2023/01/09 05:01:19;;;;;;;3.70;0.90;;;9.90;99.90;;;;;;4988957;28;20045;-87
2023/01/09 05:03:45;;;;;;;3.38;0.90;;;9.90;99.90;;;;;;5014812;28;20064;-88
2023/01/09 05:06:11;;;;;;;4.43;1.10;;;9.90;99.90;;;;;;4993075;28;20457;-87
2023/01/09 05:08:37;;;;;;;5.60;1.25;;;9.90;99.90;;;;;;5007465;28;20029;-87
2023/01/09 05:11:04;;;;;;;3.80;1.02;;;9.90;99.90;;;;;;4981787;28;20318;-88
2023/01/09 05:13:30;;;;;;;5.53;1.17;;;9.90;99.90;;;;;;5017375;28;20235;-88
2023/01/09 05:15:56;;;;;;;5.60;1.10;;;10.00;99.90;;;;;;5003402;28;20017;-88
2023/01/09 05:18:22;;;;;;;4.15;1.15;;;10.00;99.90;;;;;;4999421;28;20216;-87
2023/01/09 05:20:48;;;;;;;6.03;1.00;;;10.00;99.90;;;;;;5009498;28;20056;-88
2023/01/09 05:23:14;;;;;;;3.70;1.00;;;10.00;99.90;;;;;;4986129;28;20029;-88
2023/01/09 05:25:40;;;;;;;2.38;0.90;;;10.00;99.90;;;;;;5016460;28;20409;-89
2023/01/09 05:28:06;;;;;;;4.43;1.30;;;10.00;99.90;;;;;;4990593;28;20029;-86
2023/01/09 05:30:32;;;;;;;4.90;1.20;;;10.00;99.90;;;;;;4986812;28;20075;-89
2023/01/09 05:32:58;;;;;;;5.15;1.10;;;10.00;99.90;;;;;;4996053;28;20056;-88
2023/01/09 05:35:23;;;;;;;2.67;0.80;;;10.00;99.90;;;;;;4986397;28;20364;-88
2023/01/09 05:37:49;;;;;;;3.92;1.10;;;10.00;99.90;;;;;;4988673;28;20035;-88
2023/01/09 05:40:15;;;;;;;3.03;0.90;;;10.00;99.90;;;;;;4984022;28;20017;-88
2023/01/09 05:42:42;;;;;;;4.25;1.00;;;9.90;99.90;;;;;;5018689;28;20155;-87
2023/01/09 05:45:08;;;;;;;7.22;0.98;;;9.90;99.90;;;;;;4989021;28;20083;-89
2023/01/09 05:47:34;;;;;;;5.55;1.17;;;9.90;99.90;;;;;;5001823;28;20487;-87
2023/01/09 05:50:01;;;;;;;3.97;0.90;;;9.80;99.90;;;;;;5005757;28;20034;-87
2023/01/09 05:52:26;;;;;;;4.47;0.90;;;9.80;99.90;;;;;;4988764;28;20371;-89
2023/01/09 05:54:53;;;;;;;1.42;0.75;;;9.80;99.90;;;;;;4998014;28;20426;-88
2023/01/09 05:57:20;;;;;;;4.38;1.10;;;9.70;99.90;;;;;;4985507;28;20429;-88
2023/01/09 05:59:45;;;;;;;5.00;1.10;;;9.80;99.90;;;;;;5010569;28;20029;-89
2023/01/09 06:02:11;;;;;;;3.38;0.70;;;9.80;99.90;;;;;;4972086;28;20462;-87
2023/01/09 06:04:37;;;;;;;4.82;0.90;;;9.70;99.90;;;;;;5003906;28;20021;-89
2023/01/09 06:07:03;;;;;;;3.87;1.00;;;9.70;99.90;;;;;;4977457;28;20029;-89
2023/01/09 06:09:30;;;;;;;2.47;0.90;;;9.70;99.90;;;;;;5015676;28;20040;-89
2023/01/09 06:11:56;;;;;;;2.83;0.80;;;9.70;99.90;;;;;;5018637;28;20615;-88
2023/01/09 06:14:22;;;;;;;3.25;0.95;;;9.70;99.90;;;;;;5023966;28;20250;-88
2023/01/09 06:16:48;;;;;;;4.55;1.13;;;9.70;99.90;;;;;;4989947;28;20117;-87
2023/01/09 06:19:15;;;;;;;3.30;0.80;;;9.70;99.90;;;;;;4999271;28;20112;-88
2023/01/09 06:21:40;;;;;;;4.07;1.10;;;9.60;99.90;;;;;;4996407;28;20802;-90
2023/01/09 06:24:07;;;;;;;4.23;0.90;;;9.60;99.90;;;;;;5010696;28;20289;-87
2023/01/09 06:26:32;;;;;;;2.42;1.13;;;9.50;99.90;;;;;;5012418;28;20034;-87
2023/01/09 06:28:59;;;;;;;1.80;0.80;;;9.50;99.90;;;;;;5021084;28;20094;-86
2023/01/09 06:31:26;;;;;;;2.03;1.10;;;9.50;99.90;;;;;;5010561;28;20108;-87
2023/01/09 06:33:52;;;;;;;3.28;0.90;;;9.50;99.90;;;;;;4986194;28;20166;-87
2023/01/09 06:36:18;;;;;;;3.88;1.00;;;9.50;99.90;;;;;;4992811;28;20112;-88
2023/01/09 06:38:43;;;;;;;5.37;1.20;;;9.50;99.90;;;;;;4990387;28;20031;-88
2023/01/09 06:41:09;;;;;;;3.92;1.00;;;9.40;99.90;;;;;;5016451;28;20020;-88
2023/01/09 06:43:35;;;;;;;4.18;1.10;;;9.40;99.90;;;;;;4990587;28;20190;-88
2023/01/09 06:46:03;;;;;;;2.93;0.80;;;9.50;99.90;;;;;;5011184;28;20021;-87
2023/01/09 06:48:28;;;;;;;5.57;1.33;;;9.50;99.90;;;;;;5006066;28;20021;-88
2023/01/09 06:50:54;;;;;;;4.22;1.00;;;9.50;99.90;;;;;;4988105;28;20615;-88
2023/01/09 06:53:20;;;;;;;3.50;1.00;;;9.50;99.90;;;;;;5001806;28;20022;-87
2023/01/09 06:55:46;;;;;;;2.10;0.80;;;9.50;99.90;;;;;;4982480;28;20029;-88
2023/01/09 06:58:12;;;;;;;2.27;0.90;;;9.40;99.90;;;;;;5003508;28;20531;-87
2023/01/09 07:00:38;;;;;;;3.55;1.08;;;9.50;99.90;;;;;;5010507;28;20099;-86
2023/01/09 07:03:04;;;;;;;2.70;0.90;;;9.50;99.90;;;;;;4981341;28;20037;-89
2023/01/09 07:05:32;;;;;;;2.97;0.88;;;9.50;99.90;;;;;;5009478;28;20492;-89
2023/01/09 07:07:59;;;;;;;1.80;0.77;;;9.50;99.90;;;;;;5002698;28;20564;-89
2023/01/09 07:10:25;;;;;;;3.80;1.00;;;9.50;99.90;;;;;;4962939;28;20029;-87
2023/01/09 07:12:50;;;;;;;2.28;1.00;;;9.50;99.90;;;;;;4996600;28;20044;-87
2023/01/09 07:15:16;;;;;;;4.37;0.90;;;9.50;99.90;;;;;;5002039;28;20914;-88
2023/01/09 07:17:42;;;;;;;2.63;0.80;;;9.50;99.90;;;;;;4996269;28;20021;-88
2023/01/09 07:20:08;;;;;;;2.00;0.80;;;9.50;99.90;;;;;;4992834;28;20070;-87
2023/01/09 07:22:34;;;;;;;1.63;0.60;;;9.60;99.90;;;;;;4997742;28;20021;-88
2023/01/09 07:25:00;;;;;;;2.67;0.88;;;9.60;99.90;;;;;;4990344;28;20114;-88
2023/01/09 07:27:25;;;;;;;3.33;0.97;;;9.60;99.90;;;;;;4990643;28;20029;-88
2023/01/09 07:29:52;;;;;;;2.28;0.77;;;9.60;99.90;;;;;;5007228;28;20115;-87
2023/01/09 07:32:18;;;;;;;3.20;1.05;;;9.60;99.90;;;;;;4992458;28;20071;-87
2023/01/09 07:34:44;;;;;;;3.20;0.70;;;9.60;99.90;;;;;;4999274;28;20029;-88
2023/01/09 07:37:10;;;;;;;1.45;0.70;;;9.60;99.90;;;;;;5014962;28;20039;-87
2023/01/09 07:39:36;;;;;;;2.13;0.60;;;9.60;99.90;;;;;;4983942;28;20481;-87
2023/01/09 07:42:02;;;;;;;2.90;0.80;;;9.70;99.90;;;;;;4965290;28;20631;-88
2023/01/09 07:44:28;;;;;;;2.23;0.60;;;9.70;99.90;;;;;;4999948;28;20021;-87
2023/01/09 07:46:53;;;;;;;1.38;0.60;;;9.70;99.90;;;;;;5023002;28;20549;-89
2023/01/09 07:49:19;;;;;;;1.67;0.63;;;9.70;99.90;;;;;;4989763;28;20028;-87
2023/01/09 07:51:47;;;;;;;2.00;0.70;;;9.70;99.90;;;;;;4990466;28;20036;-88
2023/01/09 07:54:13;;;;;;;2.80;0.70;;;9.70;99.90;;;;;;4985651;28;20025;-87
2023/01/09 07:56:39;;;;;;;1.15;0.70;;;9.70;99.90;;;;;;4958658;28;20136;-88
2023/01/09 07:59:05;;;;;;;1.02;0.57;;;9.70;99.90;;;;;;4969775;28;20013;-87
2023/01/09 08:01:31;;;;;;;2.37;0.70;;;9.80;99.90;;;;;;4991811;28;20151;-88
2023/01/09 08:03:57;;;;;;;1.65;0.80;;;9.70;99.90;;;;;;5016227;28;21247;-89
2023/01/09 08:06:22;;;;;;;2.77;0.60;;;9.80;99.90;;;;;;4998414;28;20093;-88
2023/01/09 08:08:49;;;;;;;3.05;0.93;;;9.80;99.90;;;;;;4996914;28;20021;-88
2023/01/09 08:11:15;;;;;;;1.15;0.57;;;9.80;99.90;;;;;;4990479;28;20025;-88
2023/01/09 08:13:40;;;;;;;1.95;0.63;;;9.90;99.90;;;;;;4972766;28;20033;-88
2023/01/09 08:16:06;;;;;;;2.50;0.80;;;9.90;99.90;;;;;;4996102;28;20017;-87
2023/01/09 08:18:32;;;;;;;1.75;0.50;;;9.90;99.90;;;;;;5004134;28;20032;-88
2023/01/09 08:20:58;;;;;;;1.23;0.80;;;9.90;99.90;;;;;;5007865;28;20100;-87
2023/01/09 08:23:24;;;;;;;3.23;1.10;;;9.90;99.90;;;;;;4996779;28;20547;-88
2023/01/09 08:25:51;;;;;;;1.77;0.70;;;9.90;99.90;;;;;;4993933;28;20720;-89
2023/01/09 08:28:17;;;;;;;2.42;0.75;;;9.90;99.90;;;;;;4992943;28;20013;-88
2023/01/09 08:30:42;;;;;;;2.87;0.80;;;10.00;99.90;;;;;;5002538;28;20131;-88
2023/01/09 08:33:08;;;;;;;3.77;0.80;;;10.00;99.90;;;;;;4988423;28;20867;-88
2023/01/09 08:35:34;;;;;;;3.27;0.87;;;10.00;99.90;;;;;;5013786;28;20638;-88
2023/01/09 08:38:00;;;;;;;2.45;0.70;;;10.00;99.90;;;;;;5008511;28;20043;-87
2023/01/09 08:40:25;;;;;;;1.75;0.80;;;10.00;99.90;;;;;;4986650;28;20096;-89
2023/01/09 08:48:20;;;;;;;2.40;0.80;;;10.10;99.90;;;;;;5002165;28;20499;-87
2023/01/09 08:50:46;;;;;;;2.43;0.73;;;10.00;99.90;;;;;;4996199;28;20029;-88
2023/01/09 08:53:12;;;;;;;2.42;0.90;;;10.10;99.90;;;;;;4989098;28;20021;-89
2023/01/09 08:55:38;;;;;;;1.63;0.80;;;10.10;99.90;;;;;;4990076;28;20059;-87
2023/01/09 08:58:04;;;;;;;2.63;0.90;;;10.10;99.90;;;;;;4999586;28;20017;-88
2023/01/09 09:00:30;;;;;;;1.50;0.60;;;10.10;99.90;;;;;;4987729;28;20135;-88
2023/01/09 09:02:58;;;;;;;2.45;0.80;;;10.10;99.90;;;;;;5017909;28;20187;-88
2023/01/09 09:05:25;;;;;;;2.38;0.80;;;10.10;99.90;;;;;;4987846;28;20120;-87
2023/01/09 09:07:53;;;;;;;1.80;0.70;;;10.10;99.90;;;;;;4993403;28;20033;-88
2023/01/09 09:10:23;;;;;;;1.67;0.70;;;10.10;99.90;;;;;;4946065;28;20056;-88
2023/01/09 09:12:51;;;;;;;2.17;0.80;;;10.10;99.90;;;;;;4981480;28;20025;-86
2023/01/09 09:15:23;;;;;;;2.22;0.75;;;10.10;99.90;;;;;;4969997;28;20017;-89
2023/01/09 09:17:52;;;;;;;1.50;0.60;;;10.10;99.90;;;;;;4985007;28;20018;-87
2023/01/09 09:20:18;;;;;;;1.27;0.70;;;10.10;99.90;;;;;;4992106;28;20036;-87
2023/01/09 09:22:46;;;;;;;2.10;0.90;;;10.20;99.90;;;;;;4994742;28;20208;-88
2023/01/09 09:25:12;;;;;;;2.33;0.80;;;10.20;99.90;;;;;;4970634;28;20086;-87
2023/01/09 09:27:38;;;;;;;1.90;0.70;;;10.10;99.90;;;;;;4989336;28;20029;-87
2023/01/09 09:30:05;;;;;;;1.55;0.80;;;10.10;99.90;;;;;;4995207;28;20010;-88
2023/01/09 09:32:31;;;;;;;1.77;0.70;;;10.10;99.90;;;;;;4967564;28;20030;-86
2023/01/09 09:34:57;;;;;;;1.53;0.63;;;10.20;99.90;;;;;;4973164;28;20322;-88
2023/01/09 09:37:24;;;;;;;1.55;0.63;;;10.10;99.90;;;;;;4983647;28;20580;-88
2023/01/09 09:39:50;;;;;;;1.25;0.65;;;10.20;99.90;;;;;;4970688;28;20090;-88
2023/01/09 09:45:21;;;;;;;0.80;0.60;;;10.20;99.90;;;;;;4992182;28;20033;-87
2023/01/09 09:47:50;;;;;;;1.25;0.60;;;10.20;99.90;;;;;;4959169;28;20026;-87
2023/01/09 09:50:40;;;;;;;1.27;0.65;;;10.10;99.90;;;;;;4973930;28;20438;-87
2023/01/09 09:53:19;;;;;;;2.23;0.70;;;10.20;99.90;;;;;;4995666;28;20066;-87
2023/01/09 09:55:48;;;;;;;1.50;0.60;;;10.10;99.90;;;;;;5003710;28;20149;-88
2023/01/09 09:58:24;;;;;;;3.47;0.70;;;10.10;99.90;;;;;;4990243;28;20017;-86
2023/01/09 10:00:52;;;;;;;1.17;0.70;;;10.10;99.90;;;;;;4993347;28;20056;-87
2023/01/09 10:03:44;;;;;;;1.70;0.68;;;10.10;99.90;;;;;;4959566;28;20024;-87
2023/01/09 10:06:33;;;;;;;2.03;0.80;;;10.10;99.90;;;;;;4994539;28;20128;-87
2023/01/09 10:09:23;;;;;;;1.40;0.55;;;10.10;99.90;;;;;;5001730;28;20035;-88
2023/01/09 10:12:02;;;;;;;1.10;0.70;;;10.00;99.90;;;;;;5005132;28;20029;-88
2023/01/09 10:14:29;;;;;;;3.40;0.73;;;10.10;99.90;;;;;;4991056;28;20236;-87
2023/01/09 10:17:25;;;;;;;1.42;0.90;;;10.00;99.90;;;;;;5022769;28;20096;-87
2023/01/09 10:20:15;;;;;;;3.47;0.97;;;10.00;99.90;;;;;;4988075;28;20036;-87
2023/01/09 10:22:53;;;;;;;1.63;0.70;;;10.00;99.90;;;;;;4995177;28;20461;-87
2023/01/09 10:25:27;;;;;;;1.85;0.60;;;10.00;99.90;;;;;;4991886;28;20119;-87
2023/01/09 10:28:43;;;;;;;1.52;0.77;;;10.00;99.90;;;;;;5007851;28;20496;-87
2023/01/09 10:31:43;;;;;;;2.03;0.80;;;10.10;99.90;;;;;;5013876;28;20424;-86
2023/01/09 10:34:15;;;;;;;1.17;0.90;;;10.10;99.90;;;;;;4999495;28;20067;-87
2023/01/09 10:37:28;;;;;;;2.45;1.20;;;10.10;99.90;;;;;;5015667;28;20017;-87
2023/01/09 10:40:38;;;;;;;4.03;1.08;;;10.20;99.90;;;;;;4960444;28;20030;-88
2023/01/09 10:43:19;;;;;;;1.73;0.90;;;10.20;99.90;;;;;;4967768;28;20033;-87
2023/01/09 10:45:51;;;;;;;2.75;0.90;;;10.20;99.90;;;;;;4998173;28;20028;-87
2023/01/09 10:48:35;;;;;;;2.53;1.00;;;10.20;99.90;;;;;;5016277;28;20110;-84
2023/01/09 10:51:19;;;;;;;3.05;0.90;;;10.20;99.90;;;;;;4989380;28;20029;-89
2023/01/09 10:53:49;;;;;;;1.27;0.88;;;10.20;99.90;;;;;;5025204;28;20408;-89
2023/01/09 10:56:33;;;;;;;2.25;0.90;;;10.20;99.90;;;;;;5013123;28;20017;-88
2023/01/09 10:58:59;;;;;;;2.25;0.80;;;10.20;99.90;;;;;;4986376;28;20116;-86
2023/01/09 11:01:31;;;;;;;1.93;0.70;;;10.20;99.90;;;;;;4991274;28;20119;-87
2023/01/09 11:03:58;;;;;;;1.17;0.80;;;10.20;99.90;;;;;;4995380;28;20264;-86
2023/01/09 11:06:31;;;;;;;1.42;0.70;;;10.20;99.90;;;;;;4971211;28;20069;-86
2023/01/09 11:09:00;;;;;;;1.73;0.70;;;10.20;99.90;;;;;;5018583;28;20340;-87
2023/01/09 11:11:35;;;;;;;1.92;0.80;;;10.20;99.90;;;;;;4986203;28;20709;-87
2023/01/09 11:14:17;;;;;;;4.10;0.90;;;10.20;99.90;;;;;;5008281;28;20017;-87
2023/01/09 11:16:51;;;;;;;1.73;0.75;;;10.20;99.90;;;;;;5010652;28;20482;-87
2023/01/09 11:19:17;;;;;;;1.38;0.80;;;10.30;99.90;;;;;;4974813;28;20029;-87
2023/01/09 11:21:43;;;;;;;2.07;0.90;;;10.30;99.90;;;;;;5010244;28;20245;-86
2023/01/09 11:24:18;;;;;;;2.45;0.80;;;10.40;99.90;;;;;;4997763;28;20035;-87
2023/01/09 11:27:23;;;;;;;1.20;0.80;;;10.40;99.90;;;;;;5010039;28;20045;-88
2023/01/09 11:30:08;;;;;;;1.50;0.80;;;10.50;99.90;;;;;;5014625;28;20140;-89
2023/01/09 11:32:34;;;;;;;1.67;0.80;;;10.50;99.90;;;;;;5005243;28;20199;-87
2023/01/09 11:35:05;;;;;;;1.27;0.90;;;10.50;99.90;;;;;;5016173;28;20044;-87
2023/01/09 11:37:31;;;;;;;1.33;0.90;;;10.60;99.90;;;;;;4994404;28;20044;-87
2023/01/09 11:39:59;;;;;;;2.10;0.95;;;10.50;99.90;;;;;;5016978;28;20108;-87
2023/01/09 11:43:02;;;;;;;2.30;0.90;;;10.60;99.90;;;;;;5015443;28;20017;-86
2023/01/09 11:45:28;;;;;;;2.67;1.00;;;10.60;99.90;;;;;;5002300;28;20465;-87
2023/01/09 11:47:54;;;;;;;1.73;1.20;;;10.60;99.90;;;;;;5005672;28;20045;-87
2023/01/09 11:50:26;;;;;;;2.42;1.10;;;10.70;99.90;;;;;;4994742;28;20297;-87
2023/01/09 11:53:18;;;;;;;1.92;1.10;;;10.60;99.90;;;;;;4994578;28;20029;-87
2023/01/09 11:55:46;;;;;;;2.10;1.10;;;10.70;99.90;;;;;;5003028;28;20485;-87
2023/01/09 11:58:19;;;;;;;3.40;1.20;;;10.70;99.90;;;;;;4990265;28;20274;-87
2023/01/09 12:01:33;;;;;;;1.75;1.02;;;10.70;99.90;;;;;;5003300;28;20032;-88
2023/01/09 12:04:22;;;;;;;1.88;1.20;;;10.80;99.90;;;;;;4981980;28;20118;-87
2023/01/09 12:06:48;;;;;;;2.70;1.10;;;10.80;99.90;;;;;;4999902;28;20044;-87
2023/01/09 12:09:53;;;;;;;2.57;1.07;;;10.90;99.90;;;;;;4986240;28;20412;-87
2023/01/09 12:12:19;;;;;;;3.72;1.50;;;10.90;99.90;;;;;;5001798;28;20032;-87
2023/01/09 12:14:52;;;;;;;2.43;1.23;;;11.00;99.90;;;;;;5030089;28;20046;-87
2023/01/09 12:17:21;;;;;;;3.63;1.40;;;11.00;99.90;;;;;;4996954;28;20032;-86
2023/01/09 12:20:09;;;;;;;2.15;1.30;;;11.00;99.90;;;;;;5009497;28;20404;-86
2023/01/09 12:22:39;;;;;;;2.17;1.30;;;11.10;99.90;;;;;;4970960;28;20259;-87
2023/01/09 12:25:20;;;;;;;6.63;1.50;;;11.10;99.90;;;;;;4983605;28;20903;-87
2023/01/09 12:27:54;;;;;;;2.00;1.27;;;11.10;99.90;;;;;;5001677;28;20037;-86
2023/01/09 12:30:40;;;;;;;3.13;1.63;;;11.20;99.90;;;;;;5013080;28;20044;-89
2023/01/09 12:33:36;;;;;;;4.05;1.80;;;11.30;99.90;;;;;;5015599;28;20202;-87
2023/01/09 12:36:16;;;;;;;2.00;1.33;;;11.40;99.90;;;;;;4992371;28;20376;-87
2023/01/09 12:38:50;;;;;;;2.67;1.40;;;11.50;99.90;;;;;;4961224;28;20033;-87
2023/01/09 12:41:30;;;;;;;2.45;1.40;;;11.50;99.90;;;;;;4999342;28;20025;-86
2023/01/09 12:44:02;;;;;;;2.95;1.33;;;11.60;99.90;;;;;;4983780;28;20044;-87
2023/01/09 12:46:55;;;;;;;4.10;1.55;;;11.60;99.90;;;;;;4999216;28;20035;-87
2023/01/09 12:49:40;;;;;;;3.38;1.50;;;11.70;99.90;;;;;;4986594;28;20664;-86
2023/01/09 12:52:22;;;;;;;3.00;1.40;;;11.70;99.90;;;;;;5003334;28;20338;-87
2023/01/09 12:55:22;;;;;;;3.58;1.30;;;11.80;99.90;;;;;;4998971;28;20511;-86
2023/01/09 12:57:52;;;;;;;1.92;1.17;;;11.70;99.90;;;;;;4962456;28;20376;-87
2023/01/09 13:00:23;;;;;;;3.33;1.50;;;11.70;99.90;;;;;;5003403;28;20495;-87
2023/01/09 13:03:12;;;;;;;4.75;1.70;;;11.70;99.90;;;;;;5002996;28;20029;-88
2023/01/09 13:05:57;;;;;;;2.27;1.40;;;11.60;99.90;;;;;;4987790;28;20036;-87
2023/01/09 13:08:40;;;;;;;2.53;1.38;;;11.50;99.90;;;;;;5014089;28;20032;-87
2023/01/09 13:11:11;;;;;;;2.60;1.40;;;11.50;99.90;;;;;;4983331;28;20299;-89
2023/01/09 13:13:49;;;;;;;2.38;1.30;;;11.50;99.90;;;;;;4999008;28;20068;-87
2023/01/09 13:16:25;;;;;;;2.30;1.10;;;11.40;99.90;;;;;;4990481;28;20025;-87
2023/01/09 13:19:13;;;;;;;3.17;1.30;;;11.40;99.90;;;;;;5002197;28;20400;-87
2023/01/09 13:21:40;;;;;;;2.40;1.25;;;11.50;99.90;;;;;;5026753;28;20104;-87
2023/01/09 13:24:19;;;;;;;2.17;1.30;;;11.50;99.90;;;;;;5001486;28;20762;-87